Thorold, Canada
Current Conditions -  °F | °C
As of 9:00 PM on Friday 19 Dec 2014 (Local Time) from CYSN Reporting Station
Overcast Overcast  
Wind Chill: 20°   Ceiling: 2000
Heat Index: 28°   Visibility: 15mi
Dew Point: 23°   Wind: 9mph
Humidity: 80%   Direction: 250°WSW
Pressure: 30.27"   Gusts: NA
Location:  43.12°N, 79.2°W
Report Text: CYSN 200200Z 25008KT 15SM OVC020 M02/M05 A3027 RMK SC8 LAST STAFFED OB/NEX5T 201200 SLP255
Loading
Personal Weather Stations






























Interactive Weather Map New forecast layout! Learn more

10-Day Weather Forecast

Advertisements
Track Severe Weather on mobile